sensor_id;sensor_type;location;lat;lon;timestamp;P1;durP1;ratioP1;P2;durP2;ratioP2
3587;SDS011;1808;53.596;9.972;2023-05-10T00:00:18;9.23;;;3.95;;
3587;SDS011;1808;53.596;9.972;2023-05-10T00:02:45;6.53;;;4.10;;
3587;SDS011;1808;53.596;9.972;2023-05-10T00:05:12;5.13;;;3.70;;
3587;SDS011;1808;53.596;9.972;2023-05-10T00:07:38;6.28;;;4.05;;
3587;SDS011;1808;53.596;9.972;2023-05-10T00:10:05;6.30;;;4.38;;
3587;SDS011;1808;53.596;9.972;2023-05-10T00:12:32;4.65;;;3.63;;
3587;SDS011;1808;53.596;9.972;2023-05-10T00:14:58;8.68;;;4.25;;
3587;SDS011;1808;53.596;9.972;2023-05-10T00:17:26;6.15;;;3.80;;
3587;SDS011;1808;53.596;9.972;2023-05-10T00:19:52;7.93;;;3.80;;
3587;SDS011;1808;53.596;9.972;2023-05-10T00:22:19;4.68;;;3.78;;
3587;SDS011;1808;53.596;9.972;2023-05-10T00:24:45;6.18;;;3.42;;
3587;SDS011;1808;53.596;9.972;2023-05-10T00:27:12;5.57;;;3.95;;
3587;SDS011;1808;53.596;9.972;2023-05-10T00:29:38;9.07;;;4.07;;
3587;SDS011;1808;53.596;9.972;2023-05-10T00:32:05;5.63;;;3.67;;
3587;SDS011;1808;53.596;9.972;2023-05-10T00:34:32;7.18;;;3.95;;
3587;SDS011;1808;53.596;9.972;2023-05-10T00:36:59;6.35;;;4.05;;
3587;SDS011;1808;53.596;9.972;2023-05-10T00:39:26;5.68;;;4.07;;
3587;SDS011;1808;53.596;9.972;2023-05-10T00:41:53;5.72;;;4.03;;
3587;SDS011;1808;53.596;9.972;2023-05-10T00:44:20;6.72;;;4.18;;
3587;SDS011;1808;53.596;9.972;2023-05-10T00:46:46;9.25;;;4.32;;
3587;SDS011;1808;53.596;9.972;2023-05-10T00:49:13;8.00;;;4.10;;
3587;SDS011;1808;53.596;9.972;2023-05-10T00:51:41;6.32;;;4.47;;
3587;SDS011;1808;53.596;9.972;2023-05-10T00:54:07;5.38;;;4.07;;
3587;SDS011;1808;53.596;9.972;2023-05-10T00:56:34;6.05;;;3.85;;
3587;SDS011;1808;53.596;9.972;2023-05-10T00:59:00;5.45;;;3.97;;
3587;SDS011;1808;53.596;9.972;2023-05-10T01:01:27;8.55;;;4.20;;
3587;SDS011;1808;53.596;9.972;2023-05-10T01:03:54;8.23;;;4.18;;
3587;SDS011;1808;53.596;9.972;2023-05-10T01:06:22;6.15;;;4.10;;
3587;SDS011;1808;53.596;9.972;2023-05-10T01:08:49;5.82;;;4.18;;
3587;SDS011;1808;53.596;9.972;2023-05-10T01:11:16;8.20;;;4.07;;
3587;SDS011;1808;53.596;9.972;2023-05-10T01:13:43;7.03;;;4.53;;
3587;SDS011;1808;53.596;9.972;2023-05-10T01:16:12;6.35;;;4.20;;
3587;SDS011;1808;53.596;9.972;2023-05-10T01:18:39;8.43;;;3.95;;
3587;SDS011;1808;53.596;9.972;2023-05-10T01:21:13;5.25;;;3.90;;
3587;SDS011;1808;53.596;9.972;2023-05-10T01:26:52;8.98;;;4.00;;
3587;SDS011;1808;53.596;9.972;2023-05-10T01:29:33;6.03;;;4.28;;
3587;SDS011;1808;53.596;9.972;2023-05-10T01:32:22;5.03;;;3.83;;
3587;SDS011;1808;53.596;9.972;2023-05-10T01:34:54;5.30;;;4.35;;
3587;SDS011;1808;53.596;9.972;2023-05-10T01:37:26;5.53;;;4.22;;
3587;SDS011;1808;53.596;9.972;2023-05-10T01:39:58;10.30;;;4.20;;
3587;SDS011;1808;53.596;9.972;2023-05-10T01:42:29;8.68;;;4.20;;
3587;SDS011;1808;53.596;9.972;2023-05-10T01:45:00;6.45;;;4.40;;
3587;SDS011;1808;53.596;9.972;2023-05-10T01:47:30;8.57;;;4.72;;
3587;SDS011;1808;53.596;9.972;2023-05-10T01:50:01;7.85;;;4.13;;
3587;SDS011;1808;53.596;9.972;2023-05-10T01:52:30;4.97;;;3.58;;
3587;SDS011;1808;53.596;9.972;2023-05-10T01:54:59;6.43;;;4.20;;
3587;SDS011;1808;53.596;9.972;2023-05-10T01:57:32;5.45;;;4.10;;
3587;SDS011;1808;53.596;9.972;2023-05-10T01:59:59;7.22;;;4.28;;
3587;SDS011;1808;53.596;9.972;2023-05-10T02:02:27;7.65;;;4.43;;
3587;SDS011;1808;53.596;9.972;2023-05-10T02:04:56;5.80;;;4.00;;
3587;SDS011;1808;53.596;9.972;2023-05-10T02:07:23;11.85;;;4.22;;
3587;SDS011;1808;53.596;9.972;2023-05-10T02:09:50;5.80;;;3.67;;
3587;SDS011;1808;53.596;9.972;2023-05-10T02:12:17;6.72;;;4.30;;
3587;SDS011;1808;53.596;9.972;2023-05-10T02:14:44;9.63;;;4.35;;
3587;SDS011;1808;53.596;9.972;2023-05-10T02:17:11;6.28;;;4.20;;
3587;SDS011;1808;53.596;9.972;2023-05-10T02:19:40;5.53;;;4.03;;
3587;SDS011;1808;53.596;9.972;2023-05-10T02:22:07;8.90;;;5.13;;
3587;SDS011;1808;53.596;9.972;2023-05-10T02:24:34;9.52;;;4.88;;
3587;SDS011;1808;53.596;9.972;2023-05-10T02:27:02;5.75;;;4.13;;
3587;SDS011;1808;53.596;9.972;2023-05-10T02:29:28;6.43;;;4.18;;
3587;SDS011;1808;53.596;9.972;2023-05-10T02:31:56;7.38;;;4.15;;
3587;SDS011;1808;53.596;9.972;2023-05-10T02:34:23;9.45;;;4.50;;
3587;SDS011;1808;53.596;9.972;2023-05-10T02:36:53;7.45;;;4.50;;
3587;SDS011;1808;53.596;9.972;2023-05-10T02:39:20;6.22;;;4.25;;
3587;SDS011;1808;53.596;9.972;2023-05-10T02:41:47;6.43;;;4.10;;
3587;SDS011;1808;53.596;9.972;2023-05-10T02:44:15;6.25;;;4.35;;
3587;SDS011;1808;53.596;9.972;2023-05-10T02:46:43;7.63;;;4.80;;
3587;SDS011;1808;53.596;9.972;2023-05-10T02:49:10;9.63;;;4.25;;
3587;SDS011;1808;53.596;9.972;2023-05-10T02:51:37;6.13;;;4.32;;
3587;SDS011;1808;53.596;9.972;2023-05-10T02:54:09;6.03;;;4.10;;
3587;SDS011;1808;53.596;9.972;2023-05-10T02:56:40;7.05;;;4.63;;
3587;SDS011;1808;53.596;9.972;2023-05-10T02:59:09;6.55;;;4.40;;
3587;SDS011;1808;53.596;9.972;2023-05-10T03:01:36;14.90;;;4.72;;
3587;SDS011;1808;53.596;9.972;2023-05-10T03:04:02;7.18;;;4.45;;
3587;SDS011;1808;53.596;9.972;2023-05-10T03:06:28;7.00;;;4.28;;
3587;SDS011;1808;53.596;9.972;2023-05-10T03:08:55;6.47;;;4.15;;
3587;SDS011;1808;53.596;9.972;2023-05-10T03:11:28;5.38;;;4.13;;
3587;SDS011;1808;53.596;9.972;2023-05-10T03:14:04;8.68;;;4.53;;
3587;SDS011;1808;53.596;9.972;2023-05-10T03:16:36;7.13;;;4.40;;
3587;SDS011;1808;53.596;9.972;2023-05-10T03:19:11;8.50;;;4.72;;
3587;SDS011;1808;53.596;9.972;2023-05-10T03:21:41;7.60;;;4.35;;
3587;SDS011;1808;53.596;9.972;2023-05-10T03:24:08;11.07;;;4.82;;
3587;SDS011;1808;53.596;9.972;2023-05-10T03:26:38;10.57;;;4.80;;
3587;SDS011;1808;53.596;9.972;2023-05-10T03:29:04;7.63;;;4.65;;
3587;SDS011;1808;53.596;9.972;2023-05-10T03:31:32;7.00;;;4.50;;
3587;SDS011;1808;53.596;9.972;2023-05-10T03:33:58;6.70;;;4.80;;
3587;SDS011;1808;53.596;9.972;2023-05-10T03:36:25;7.75;;;4.68;;
3587;SDS011;1808;53.596;9.972;2023-05-10T03:38:51;7.50;;;4.60;;
3587;SDS011;1808;53.596;9.972;2023-05-10T03:41:17;6.57;;;4.13;;
3587;SDS011;1808;53.596;9.972;2023-05-10T03:43:46;8.10;;;4.32;;
3587;SDS011;1808;53.596;9.972;2023-05-10T03:46:13;9.50;;;4.80;;
3587;SDS011;1808;53.596;9.972;2023-05-10T03:48:39;7.40;;;4.22;;
3587;SDS011;1808;53.596;9.972;2023-05-10T03:51:05;9.85;;;4.65;;
3587;SDS011;1808;53.596;9.972;2023-05-10T03:53:32;8.10;;;4.40;;
3587;SDS011;1808;53.596;9.972;2023-05-10T03:55:58;7.47;;;4.50;;
3587;SDS011;1808;53.596;9.972;2023-05-10T03:58:24;8.95;;;4.85;;
3587;SDS011;1808;53.596;9.972;2023-05-10T04:00:52;8.00;;;4.25;;
3587;SDS011;1808;53.596;9.972;2023-05-10T04:03:18;7.60;;;4.32;;
3587;SDS011;1808;53.596;9.972;2023-05-10T04:05:45;8.05;;;4.65;;
3587;SDS011;1808;53.596;9.972;2023-05-10T04:08:11;8.15;;;4.00;;
3587;SDS011;1808;53.596;9.972;2023-05-10T04:10:37;8.52;;;4.18;;
3587;SDS011;1808;53.596;9.972;2023-05-10T04:13:05;8.60;;;4.45;;
3587;SDS011;1808;53.596;9.972;2023-05-10T04:15:32;10.52;;;4.82;;
3587;SDS011;1808;53.596;9.972;2023-05-10T04:17:59;9.75;;;4.82;;
3587;SDS011;1808;53.596;9.972;2023-05-10T04:20:25;6.90;;;4.50;;
3587;SDS011;1808;53.596;9.972;2023-05-10T04:22:52;8.00;;;4.50;;
3587;SDS011;1808;53.596;9.972;2023-05-10T04:25:18;7.40;;;4.30;;
3587;SDS011;1808;53.596;9.972;2023-05-10T04:27:45;10.13;;;5.28;;
3587;SDS011;1808;53.596;9.972;2023-05-10T04:30:11;5.75;;;4.50;;
3587;SDS011;1808;53.596;9.972;2023-05-10T04:32:38;7.90;;;4.60;;
3587;SDS011;1808;53.596;9.972;2023-05-10T04:35:06;9.30;;;4.50;;
3587;SDS011;1808;53.596;9.972;2023-05-10T04:37:32;6.10;;;4.55;;
3587;SDS011;1808;53.596;9.972;2023-05-10T04:39:59;8.88;;;4.45;;
3587;SDS011;1808;53.596;9.972;2023-05-10T04:42:25;6.63;;;4.40;;
3587;SDS011;1808;53.596;9.972;2023-05-10T04:44:52;6.35;;;4.88;;
3587;SDS011;1808;53.596;9.972;2023-05-10T04:47:18;7.47;;;4.90;;
3587;SDS011;1808;53.596;9.972;2023-05-10T04:49:44;9.63;;;4.43;;
3587;SDS011;1808;53.596;9.972;2023-05-10T04:52:12;7.28;;;4.95;;
3587;SDS011;1808;53.596;9.972;2023-05-10T04:54:40;8.52;;;4.75;;
3587;SDS011;1808;53.596;9.972;2023-05-10T04:57:06;8.27;;;4.63;;
3587;SDS011;1808;53.596;9.972;2023-05-10T04:59:32;10.73;;;4.72;;
3587;SDS011;1808;53.596;9.972;2023-05-10T05:01:59;7.40;;;4.72;;
3587;SDS011;1808;53.596;9.972;2023-05-10T05:04:25;8.77;;;4.47;;
3587;SDS011;1808;53.596;9.972;2023-05-10T05:06:51;8.48;;;5.03;;
3587;SDS011;1808;53.596;9.972;2023-05-10T05:09:19;12.23;;;5.22;;
3587;SDS011;1808;53.596;9.972;2023-05-10T05:11:45;9.57;;;5.00;;
3587;SDS011;1808;53.596;9.972;2023-05-10T05:14:11;8.27;;;5.03;;
3587;SDS011;1808;53.596;9.972;2023-05-10T05:16:38;5.88;;;4.60;;
3587;SDS011;1808;53.596;9.972;2023-05-10T05:19:04;9.20;;;5.20;;
3587;SDS011;1808;53.596;9.972;2023-05-10T05:21:31;8.20;;;4.40;;
3587;SDS011;1808;53.596;9.972;2023-05-10T05:23:57;5.47;;;4.35;;
3587;SDS011;1808;53.596;9.972;2023-05-10T05:26:26;15.75;;;5.13;;
3587;SDS011;1808;53.596;9.972;2023-05-10T05:28:52;6.72;;;4.30;;
3587;SDS011;1808;53.596;9.972;2023-05-10T05:31:19;9.48;;;5.13;;
3587;SDS011;1808;53.596;9.972;2023-05-10T05:33:46;8.57;;;5.15;;
3587;SDS011;1808;53.596;9.972;2023-05-10T05:36:12;5.97;;;4.57;;
3587;SDS011;1808;53.596;9.972;2023-05-10T05:38:38;7.75;;;4.50;;
3587;SDS011;1808;53.596;9.972;2023-05-10T05:41:05;9.50;;;4.70;;
3587;SDS011;1808;53.596;9.972;2023-05-10T05:43:32;10.48;;;4.72;;
3587;SDS011;1808;53.596;9.972;2023-05-10T05:45:59;8.82;;;4.72;;
3587;SDS011;1808;53.596;9.972;2023-05-10T05:48:25;7.35;;;5.28;;
3587;SDS011;1808;53.596;9.972;2023-05-10T05:50:53;8.73;;;4.15;;
3587;SDS011;1808;53.596;9.972;2023-05-10T05:53:21;6.72;;;4.75;;
3587;SDS011;1808;53.596;9.972;2023-05-10T05:55:50;9.82;;;4.80;;
3587;SDS011;1808;53.596;9.972;2023-05-10T05:58:17;8.70;;;4.35;;
3587;SDS011;1808;53.596;9.972;2023-05-10T06:00:45;9.23;;;4.60;;
3587;SDS011;1808;53.596;9.972;2023-05-10T06:03:11;8.80;;;4.85;;
3587;SDS011;1808;53.596;9.972;2023-05-10T06:05:38;13.23;;;5.55;;
3587;SDS011;1808;53.596;9.972;2023-05-10T06:08:04;12.18;;;4.57;;
3587;SDS011;1808;53.596;9.972;2023-05-10T06:10:30;6.05;;;4.65;;
3587;SDS011;1808;53.596;9.972;2023-05-10T06:12:57;7.80;;;4.55;;
3587;SDS011;1808;53.596;9.972;2023-05-10T06:15:23;8.57;;;5.00;;
3587;SDS011;1808;53.596;9.972;2023-05-10T06:17:51;8.57;;;4.78;;
3587;SDS011;1808;53.596;9.972;2023-05-10T06:20:17;6.35;;;4.72;;
3587;SDS011;1808;53.596;9.972;2023-05-10T06:22:44;7.80;;;4.53;;
3587;SDS011;1808;53.596;9.972;2023-05-10T06:25:10;7.28;;;5.65;;
3587;SDS011;1808;53.596;9.972;2023-05-10T06:27:37;6.45;;;4.97;;
3587;SDS011;1808;53.596;9.972;2023-05-10T06:30:04;7.95;;;5.05;;
3587;SDS011;1808;53.596;9.972;2023-05-10T06:32:31;9.13;;;4.65;;
3587;SDS011;1808;53.596;9.972;2023-05-10T06:34:58;7.95;;;4.68;;
3587;SDS011;1808;53.596;9.972;2023-05-10T06:37:25;11.27;;;5.88;;
3587;SDS011;1808;53.596;9.972;2023-05-10T06:39:52;9.93;;;5.20;;
3587;SDS011;1808;53.596;9.972;2023-05-10T06:42:18;10.40;;;5.05;;
3587;SDS011;1808;53.596;9.972;2023-05-10T06:44:44;10.82;;;4.60;;
3587;SDS011;1808;53.596;9.972;2023-05-10T06:47:10;6.28;;;5.00;;
3587;SDS011;1808;53.596;9.972;2023-05-10T06:49:37;7.63;;;4.80;;
3587;SDS011;1808;53.596;9.972;2023-05-10T06:52:04;8.20;;;4.90;;
3587;SDS011;1808;53.596;9.972;2023-05-10T06:54:31;10.98;;;5.32;;
3587;SDS011;1808;53.596;9.972;2023-05-10T06:56:57;11.07;;;4.47;;
3587;SDS011;1808;53.596;9.972;2023-05-10T06:59:23;7.85;;;4.90;;
3587;SDS011;1808;53.596;9.972;2023-05-10T07:01:50;7.85;;;5.53;;
3587;SDS011;1808;53.596;9.972;2023-05-10T07:04:16;9.57;;;5.03;;
3587;SDS011;1808;53.596;9.972;2023-05-10T07:06:43;8.23;;;4.82;;
3587;SDS011;1808;53.596;9.972;2023-05-10T07:09:12;16.77;;;5.00;;
3587;SDS011;1808;53.596;9.972;2023-05-10T07:11:39;7.10;;;5.03;;
3587;SDS011;1808;53.596;9.972;2023-05-10T07:14:05;8.27;;;6.60;;
3587;SDS011;1808;53.596;9.972;2023-05-10T07:16:32;6.63;;;4.80;;
3587;SDS011;1808;53.596;9.972;2023-05-10T07:18:58;7.07;;;5.28;;
3587;SDS011;1808;53.596;9.972;2023-05-10T07:21:25;8.25;;;4.65;;
3587;SDS011;1808;53.596;9.972;2023-05-10T07:23:53;9.68;;;5.05;;
3587;SDS011;1808;53.596;9.972;2023-05-10T07:26:21;7.80;;;4.80;;
3587;SDS011;1808;53.596;9.972;2023-05-10T07:28:47;8.35;;;5.38;;
3587;SDS011;1808;53.596;9.972;2023-05-10T07:31:14;9.13;;;5.28;;
3587;SDS011;1808;53.596;9.972;2023-05-10T07:33:40;6.97;;;5.72;;
3587;SDS011;1808;53.596;9.972;2023-05-10T07:36:07;6.90;;;5.25;;
3587;SDS011;1808;53.596;9.972;2023-05-10T07:38:34;8.25;;;5.30;;
3587;SDS011;1808;53.596;9.972;2023-05-10T07:41:00;12.48;;;6.18;;
3587;SDS011;1808;53.596;9.972;2023-05-10T07:43:28;5.70;;;4.75;;
3587;SDS011;1808;53.596;9.972;2023-05-10T07:45:55;7.97;;;5.07;;
3587;SDS011;1808;53.596;9.972;2023-05-10T07:48:22;9.02;;;4.75;;
3587;SDS011;1808;53.596;9.972;2023-05-10T07:50:49;6.45;;;5.20;;
3587;SDS011;1808;53.596;9.972;2023-05-10T07:53:15;7.55;;;4.95;;
3587;SDS011;1808;53.596;9.972;2023-05-10T07:55:41;9.07;;;4.63;;
3587;SDS011;1808;53.596;9.972;2023-05-10T07:58:08;8.60;;;5.78;;
3587;SDS011;1808;53.596;9.972;2023-05-10T08:00:36;8.43;;;5.32;;
3587;SDS011;1808;53.596;9.972;2023-05-10T08:03:04;8.05;;;5.13;;
3587;SDS011;1808;53.596;9.972;2023-05-10T08:05:31;7.28;;;4.95;;
3587;SDS011;1808;53.596;9.972;2023-05-10T08:07:57;7.93;;;5.32;;
3587;SDS011;1808;53.596;9.972;2023-05-10T08:10:24;13.20;;;5.43;;
3587;SDS011;1808;53.596;9.972;2023-05-10T08:12:51;10.27;;;5.20;;
3587;SDS011;1808;53.596;9.972;2023-05-10T08:15:17;8.02;;;5.43;;
3587;SDS011;1808;53.596;9.972;2023-05-10T08:17:45;10.18;;;5.10;;
3587;SDS011;1808;53.596;9.972;2023-05-10T08:20:12;7.78;;;4.72;;
3587;SDS011;1808;53.596;9.972;2023-05-10T08:22:41;7.53;;;4.72;;
3587;SDS011;1808;53.596;9.972;2023-05-10T08:25:08;9.15;;;4.88;;
3587;SDS011;1808;53.596;9.972;2023-05-10T08:27:34;8.43;;;5.55;;
3587;SDS011;1808;53.596;9.972;2023-05-10T08:30:01;9.00;;;5.32;;
3587;SDS011;1808;53.596;9.972;2023-05-10T08:32:27;8.13;;;5.43;;
3587;SDS011;1808;53.596;9.972;2023-05-10T08:34:55;10.77;;;5.63;;
3587;SDS011;1808;53.596;9.972;2023-05-10T08:37:22;11.93;;;5.40;;
3587;SDS011;1808;53.596;9.972;2023-05-10T08:39:49;7.75;;;5.38;;
3587;SDS011;1808;53.596;9.972;2023-05-10T08:42:15;11.02;;;5.70;;
3587;SDS011;1808;53.596;9.972;2023-05-10T08:44:43;7.72;;;4.70;;
3587;SDS011;1808;53.596;9.972;2023-05-10T08:47:10;10.80;;;5.72;;
3587;SDS011;1808;53.596;9.972;2023-05-10T08:49:37;7.55;;;5.15;;
3587;SDS011;1808;53.596;9.972;2023-05-10T08:52:05;8.48;;;5.47;;
3587;SDS011;1808;53.596;9.972;2023-05-10T08:54:32;11.05;;;5.90;;
3587;SDS011;1808;53.596;9.972;2023-05-10T08:56:59;7.43;;;5.47;;
3587;SDS011;1808;53.596;9.972;2023-05-10T08:59:25;10.50;;;6.15;;
3587;SDS011;1808;53.596;9.972;2023-05-10T09:01:52;8.07;;;4.97;;
3587;SDS011;1808;53.596;9.972;2023-05-10T09:04:20;10.77;;;5.13;;
3587;SDS011;1808;53.596;9.972;2023-05-10T09:06:47;12.77;;;5.68;;
3587;SDS011;1808;53.596;9.972;2023-05-10T09:09:14;9.65;;;5.30;;
3587;SDS011;1808;53.596;9.972;2023-05-10T09:11:42;10.68;;;5.85;;
3587;SDS011;1808;53.596;9.972;2023-05-10T09:14:08;14.05;;;6.22;;
3587;SDS011;1808;53.596;9.972;2023-05-10T09:16:35;8.60;;;6.00;;
3587;SDS011;1808;53.596;9.972;2023-05-10T09:19:02;8.40;;;5.55;;
3587;SDS011;1808;53.596;9.972;2023-05-10T09:21:28;11.60;;;5.50;;
3587;SDS011;1808;53.596;9.972;2023-05-10T09:23:56;9.00;;;5.93;;
3587;SDS011;1808;53.596;9.972;2023-05-10T09:26:24;9.25;;;6.40;;
3587;SDS011;1808;53.596;9.972;2023-05-10T09:28:51;10.55;;;5.82;;
3587;SDS011;1808;53.596;9.972;2023-05-10T09:31:18;11.18;;;6.45;;
3587;SDS011;1808;53.596;9.972;2023-05-10T09:33:45;8.65;;;6.28;;
3587;SDS011;1808;53.596;9.972;2023-05-10T09:36:12;10.82;;;5.95;;
3587;SDS011;1808;53.596;9.972;2023-05-10T09:38:45;9.30;;;6.93;;
3587;SDS011;1808;53.596;9.972;2023-05-10T09:41:16;9.35;;;6.88;;
3587;SDS011;1808;53.596;9.972;2023-05-10T09:43:44;9.57;;;5.97;;
3587;SDS011;1808;53.596;9.972;2023-05-10T09:46:11;9.13;;;6.28;;
3587;SDS011;1808;53.596;9.972;2023-05-10T09:48:39;9.85;;;6.45;;
3587;SDS011;1808;53.596;9.972;2023-05-10T09:51:08;8.52;;;6.65;;
3587;SDS011;1808;53.596;9.972;2023-05-10T09:53:35;12.45;;;7.32;;
3587;SDS011;1808;53.596;9.972;2023-05-10T09:56:01;11.05;;;7.30;;
3587;SDS011;1808;53.596;9.972;2023-05-10T09:58:28;11.80;;;7.88;;
3587;SDS011;1808;53.596;9.972;2023-05-10T10:00:56;11.77;;;7.20;;
3587;SDS011;1808;53.596;9.972;2023-05-10T10:03:22;12.25;;;7.95;;
3587;SDS011;1808;53.596;9.972;2023-05-10T10:05:49;10.00;;;7.57;;
3587;SDS011;1808;53.596;9.972;2023-05-10T10:08:17;10.88;;;7.55;;
3587;SDS011;1808;53.596;9.972;2023-05-10T10:10:45;10.93;;;8.10;;
3587;SDS011;1808;53.596;9.972;2023-05-10T10:13:13;11.73;;;7.35;;
3587;SDS011;1808;53.596;9.972;2023-05-10T10:15:40;13.10;;;8.48;;
3587;SDS011;1808;53.596;9.972;2023-05-10T10:18:09;12.48;;;8.65;;
3587;SDS011;1808;53.596;9.972;2023-05-10T10:20:38;12.73;;;8.25;;
3587;SDS011;1808;53.596;9.972;2023-05-10T10:23:05;11.25;;;8.40;;
3587;SDS011;1808;53.596;9.972;2023-05-10T10:25:32;18.65;;;9.50;;
3587;SDS011;1808;53.596;9.972;2023-05-10T10:28:01;11.80;;;8.07;;
3587;SDS011;1808;53.596;9.972;2023-05-10T10:30:35;11.35;;;8.30;;
3587;SDS011;1808;53.596;9.972;2023-05-10T10:33:10;10.57;;;7.03;;
3587;SDS011;1808;53.596;9.972;2023-05-10T10:35:44;12.82;;;9.07;;
3587;SDS011;1808;53.596;9.972;2023-05-10T10:38:12;11.15;;;8.90;;
3587;SDS011;1808;53.596;9.972;2023-05-10T10:40:38;11.60;;;9.10;;
3587;SDS011;1808;53.596;9.972;2023-05-10T10:43:21;11.45;;;9.48;;
3587;SDS011;1808;53.596;9.972;2023-05-10T10:48:23;12.15;;;9.32;;
3587;SDS011;1808;53.596;9.972;2023-05-10T10:50:55;11.13;;;9.45;;
3587;SDS011;1808;53.596;9.972;2023-05-10T10:53:22;16.05;;;9.77;;
3587;SDS011;1808;53.596;9.972;2023-05-10T10:55:48;17.67;;;10.40;;
3587;SDS011;1808;53.596;9.972;2023-05-10T10:58:28;13.40;;;11.10;;
3587;SDS011;1808;53.596;9.972;2023-05-10T11:01:07;12.68;;;10.65;;
3587;SDS011;1808;53.596;9.972;2023-05-10T11:03:36;13.90;;;10.02;;
3587;SDS011;1808;53.596;9.972;2023-05-10T11:06:03;12.82;;;9.55;;
3587;SDS011;1808;53.596;9.972;2023-05-10T11:08:30;12.45;;;9.70;;
3587;SDS011;1808;53.596;9.972;2023-05-10T11:11:05;12.43;;;9.40;;
3587;SDS011;1808;53.596;9.972;2023-05-10T11:13:37;12.32;;;8.63;;
3587;SDS011;1808;53.596;9.972;2023-05-10T11:16:12;14.18;;;9.82;;
3587;SDS011;1808;53.596;9.972;2023-05-10T11:18:41;12.82;;;9.57;;
3587;SDS011;1808;53.596;9.972;2023-05-10T11:21:18;12.40;;;9.98;;
3587;SDS011;1808;53.596;9.972;2023-05-10T11:23:48;17.45;;;10.95;;
3587;SDS011;1808;53.596;9.972;2023-05-10T11:26:15;15.35;;;10.93;;
3587;SDS011;1808;53.596;9.972;2023-05-10T11:28:42;12.70;;;9.57;;
3587;SDS011;1808;53.596;9.972;2023-05-10T11:31:09;12.85;;;9.73;;
3587;SDS011;1808;53.596;9.972;2023-05-10T11:33:43;11.98;;;9.43;;
3587;SDS011;1808;53.596;9.972;2023-05-10T11:36:10;12.43;;;9.88;;
3587;SDS011;1808;53.596;9.972;2023-05-10T11:38:37;15.82;;;9.65;;
3587;SDS011;1808;53.596;9.972;2023-05-10T11:41:04;11.77;;;9.32;;
3587;SDS011;1808;53.596;9.972;2023-05-10T11:43:30;13.68;;;10.23;;
3587;SDS011;1808;53.596;9.972;2023-05-10T11:45:57;11.20;;;8.90;;
3587;SDS011;1808;53.596;9.972;2023-05-10T11:48:24;12.05;;;9.13;;
3587;SDS011;1808;53.596;9.972;2023-05-10T11:50:51;13.80;;;9.90;;
3587;SDS011;1808;53.596;9.972;2023-05-10T11:53:21;14.05;;;10.23;;
3587;SDS011;1808;53.596;9.972;2023-05-10T11:55:48;15.70;;;10.15;;
3587;SDS011;1808;53.596;9.972;2023-05-10T11:58:14;12.48;;;9.63;;
3587;SDS011;1808;53.596;9.972;2023-05-10T12:00:41;14.25;;;10.30;;
3587;SDS011;1808;53.596;9.972;2023-05-10T12:03:07;14.93;;;10.98;;
3587;SDS011;1808;53.596;9.972;2023-05-10T12:05:35;15.77;;;11.82;;
3587;SDS011;1808;53.596;9.972;2023-05-10T12:08:12;14.73;;;11.35;;
3587;SDS011;1808;53.596;9.972;2023-05-10T12:10:40;17.90;;;12.52;;
3587;SDS011;1808;53.596;9.972;2023-05-10T12:13:10;17.45;;;13.43;;
3587;SDS011;1808;53.596;9.972;2023-05-10T12:15:37;15.10;;;11.20;;
3587;SDS011;1808;53.596;9.972;2023-05-10T12:18:03;14.13;;;12.05;;
3587;SDS011;1808;53.596;9.972;2023-05-10T12:20:30;16.17;;;11.95;;
3587;SDS011;1808;53.596;9.972;2023-05-10T12:22:57;13.65;;;11.40;;
3587;SDS011;1808;53.596;9.972;2023-05-10T12:25:30;14.02;;;10.57;;
3587;SDS011;1808;53.596;9.972;2023-05-10T12:27:58;12.43;;;10.02;;
3587;SDS011;1808;53.596;9.972;2023-05-10T12:30:26;14.88;;;10.73;;
3587;SDS011;1808;53.596;9.972;2023-05-10T12:32:54;12.35;;;9.70;;
3587;SDS011;1808;53.596;9.972;2023-05-10T12:35:26;12.18;;;9.57;;
3587;SDS011;1808;53.596;9.972;2023-05-10T12:37:52;11.88;;;9.50;;
3587;SDS011;1808;53.596;9.972;2023-05-10T12:40:19;12.05;;;10.20;;
3587;SDS011;1808;53.596;9.972;2023-05-10T12:42:46;12.52;;;9.75;;
3587;SDS011;1808;53.596;9.972;2023-05-10T12:45:13;13.63;;;9.52;;
3587;SDS011;1808;53.596;9.972;2023-05-10T12:47:40;10.85;;;8.88;;
3587;SDS011;1808;53.596;9.972;2023-05-10T12:50:07;12.15;;;9.40;;
3587;SDS011;1808;53.596;9.972;2023-05-10T12:52:34;11.30;;;9.20;;
3587;SDS011;1808;53.596;9.972;2023-05-10T12:55:00;14.43;;;9.25;;
3587;SDS011;1808;53.596;9.972;2023-05-10T12:57:28;17.25;;;9.13;;
3587;SDS011;1808;53.596;9.972;2023-05-10T12:59:56;15.10;;;9.52;;
3587;SDS011;1808;53.596;9.972;2023-05-10T13:02:22;9.50;;;8.20;;
3587;SDS011;1808;53.596;9.972;2023-05-10T13:04:49;12.00;;;7.50;;
3587;SDS011;1808;53.596;9.972;2023-05-10T13:07:16;11.20;;;7.53;;
3587;SDS011;1808;53.596;9.972;2023-05-10T13:09:42;8.30;;;6.50;;
3587;SDS011;1808;53.596;9.972;2023-05-10T13:12:08;11.95;;;8.18;;
3587;SDS011;1808;53.596;9.972;2023-05-10T13:14:35;12.25;;;8.02;;
3587;SDS011;1808;53.596;9.972;2023-05-10T13:17:03;11.85;;;9.73;;
3587;SDS011;1808;53.596;9.972;2023-05-10T13:19:29;14.13;;;9.68;;
3587;SDS011;1808;53.596;9.972;2023-05-10T13:21:56;14.15;;;10.52;;
3587;SDS011;1808;53.596;9.972;2023-05-10T13:24:22;10.65;;;8.98;;
3587;SDS011;1808;53.596;9.972;2023-05-10T13:26:49;11.40;;;9.88;;
3587;SDS011;1808;53.596;9.972;2023-05-10T13:29:15;10.63;;;8.45;;
3587;SDS011;1808;53.596;9.972;2023-05-10T13:31:43;10.27;;;8.32;;
3587;SDS011;1808;53.596;9.972;2023-05-10T13:34:11;11.60;;;8.55;;
3587;SDS011;1808;53.596;9.972;2023-05-10T13:36:37;9.35;;;7.88;;
3587;SDS011;1808;53.596;9.972;2023-05-10T13:39:04;10.73;;;8.07;;
3587;SDS011;1808;53.596;9.972;2023-05-10T13:41:30;11.68;;;8.35;;
3587;SDS011;1808;53.596;9.972;2023-05-10T13:43:57;10.48;;;8.70;;
3587;SDS011;1808;53.596;9.972;2023-05-10T13:46:23;11.45;;;8.63;;
3587;SDS011;1808;53.596;9.972;2023-05-10T13:48:50;9.55;;;7.90;;
3587;SDS011;1808;53.596;9.972;2023-05-10T13:51:18;9.45;;;8.02;;
3587;SDS011;1808;53.596;9.972;2023-05-10T13:53:44;9.82;;;8.38;;
3587;SDS011;1808;53.596;9.972;2023-05-10T13:56:12;10.60;;;8.63;;
3587;SDS011;1808;53.596;9.972;2023-05-10T13:58:38;10.35;;;8.95;;
3587;SDS011;1808;53.596;9.972;2023-05-10T14:01:05;10.15;;;8.95;;
3587;SDS011;1808;53.596;9.972;2023-05-10T14:03:31;12.88;;;9.18;;
3587;SDS011;1808;53.596;9.972;2023-05-10T14:05:58;12.55;;;10.02;;
3587;SDS011;1808;53.596;9.972;2023-05-10T14:08:26;12.85;;;10.15;;
3587;SDS011;1808;53.596;9.972;2023-05-10T14:10:53;11.82;;;9.38;;
3587;SDS011;1808;53.596;9.972;2023-05-10T14:13:21;11.35;;;8.90;;
3587;SDS011;1808;53.596;9.972;2023-05-10T14:15:47;11.18;;;9.18;;
3587;SDS011;1808;53.596;9.972;2023-05-10T14:18:14;9.60;;;8.30;;
3587;SDS011;1808;53.596;9.972;2023-05-10T14:20:40;10.63;;;8.38;;
3587;SDS011;1808;53.596;9.972;2023-05-10T14:23:07;9.90;;;8.52;;
3587;SDS011;1808;53.596;9.972;2023-05-10T14:25:35;12.35;;;9.18;;
3587;SDS011;1808;53.596;9.972;2023-05-10T14:28:03;9.95;;;8.32;;
3587;SDS011;1808;53.596;9.972;2023-05-10T14:30:29;9.57;;;8.38;;
3587;SDS011;1808;53.596;9.972;2023-05-10T14:32:57;9.65;;;8.05;;
3587;SDS011;1808;53.596;9.972;2023-05-10T14:35:26;9.57;;;8.30;;
3587;SDS011;1808;53.596;9.972;2023-05-10T14:37:52;9.00;;;8.02;;
3587;SDS011;1808;53.596;9.972;2023-05-10T14:40:19;10.73;;;8.25;;
3587;SDS011;1808;53.596;9.972;2023-05-10T14:42:47;9.80;;;8.07;;
3587;SDS011;1808;53.596;9.972;2023-05-10T14:45:13;8.93;;;7.63;;
3587;SDS011;1808;53.596;9.972;2023-05-10T14:47:40;9.43;;;7.95;;
3587;SDS011;1808;53.596;9.972;2023-05-10T14:50:07;10.75;;;8.77;;
3587;SDS011;1808;53.596;9.972;2023-05-10T14:52:33;12.50;;;8.98;;
3587;SDS011;1808;53.596;9.972;2023-05-10T14:55:00;10.13;;;8.40;;
3587;SDS011;1808;53.596;9.972;2023-05-10T14:57:27;9.95;;;8.80;;
3587;SDS011;1808;53.596;9.972;2023-05-10T14:59:55;10.10;;;8.27;;
3587;SDS011;1808;53.596;9.972;2023-05-10T15:02:22;9.43;;;7.78;;
3587;SDS011;1808;53.596;9.972;2023-05-10T15:04:48;12.10;;;8.20;;
3587;SDS011;1808;53.596;9.972;2023-05-10T15:07:15;11.13;;;8.27;;
3587;SDS011;1808;53.596;9.972;2023-05-10T15:09:43;9.80;;;8.75;;
3587;SDS011;1808;53.596;9.972;2023-05-10T15:12:09;10.63;;;8.00;;
3587;SDS011;1808;53.596;9.972;2023-05-10T15:14:36;10.48;;;8.10;;